createdAt,value
2019-01-23T00:01:26.452Z,37.93
2019-01-23T00:03:56.781Z,43.37
2019-01-23T00:06:27.171Z,43.07
2019-01-23T00:08:57.538Z,39.47
2019-01-23T00:11:27.921Z,45.07
2019-01-23T00:17:06.541Z,44.93
2019-01-23T00:19:36.905Z,58.80
2019-01-23T00:22:07.926Z,50.27
2019-01-23T00:24:38.509Z,53.20
2019-01-23T00:27:08.937Z,53.80
2019-01-23T00:29:58.396Z,54.17
2019-01-23T00:32:28.874Z,57.33
2019-01-23T00:34:59.257Z,47.97
2019-01-23T00:37:29.535Z,64.73
2019-01-23T00:40:20.411Z,54.23
2019-01-23T00:42:50.737Z,66.10
2019-01-23T00:45:21.151Z,54.67
2019-01-23T00:47:53.056Z,67.53
2019-01-23T00:50:23.574Z,59.80
2019-01-23T00:52:53.850Z,64.03
2019-01-23T00:58:07.736Z,55.33
2019-01-23T01:00:38.084Z,85.70
2019-01-23T01:03:08.633Z,59.20
2019-01-23T01:05:39.226Z,63.83
2019-01-23T01:08:09.687Z,62.17
2019-01-23T01:10:39.973Z,66.30
2019-01-23T01:13:10.243Z,72.53
2019-01-23T01:15:40.665Z,65.37
2019-01-23T01:18:10.986Z,64.47
2019-01-23T01:20:41.260Z,84.43
2019-01-23T01:23:11.744Z,81.93
2019-01-23T01:25:42.163Z,65.13
2019-01-23T01:28:12.485Z,77.10
2019-01-23T01:30:42.764Z,70.40
2019-01-23T01:33:13.096Z,77.73
2019-01-23T01:35:43.381Z,85.00
2019-01-23T01:47:07.340Z,78.63
2019-01-23T01:49:37.577Z,81.27
2019-01-23T01:52:07.850Z,88.20
2019-01-23T01:54:38.147Z,85.80
2019-01-23T02:03:30.531Z,100.27
2019-01-23T02:06:00.911Z,95.43
2019-01-23T02:08:31.225Z,91.87
2019-01-23T02:11:01.492Z,75.93
2019-01-23T02:13:31.805Z,91.70
2019-01-23T02:16:02.026Z,99.17
2019-01-23T02:18:32.359Z,112.77
2019-01-23T02:21:02.632Z,111.07
2019-01-23T02:23:32.914Z,98.00
2019-01-23T02:26:03.189Z,114.57
2019-01-23T02:28:33.576Z,106.27
2019-01-23T02:33:59.443Z,111.40
2019-01-23T02:36:29.788Z,98.10
2019-01-23T02:39:00.049Z,93.30
2019-01-23T02:41:30.501Z,102.37
2019-01-23T02:44:02.370Z,104.43
2019-01-23T02:46:32.728Z,113.50
2019-01-23T02:49:03.131Z,100.97
2019-01-23T02:51:33.551Z,95.63
2019-01-23T02:54:03.850Z,99.77
2019-01-23T02:56:34.216Z,112.77
2019-01-23T03:01:49.884Z,94.77
2019-01-23T03:07:11.744Z,92.53
2019-01-23T03:09:42.077Z,100.27
2019-01-23T03:12:12.485Z,95.57
2019-01-23T03:14:42.919Z,91.33
2019-01-23T03:17:13.280Z,81.10
2019-01-23T03:19:44.123Z,102.07
2019-01-23T03:22:33.848Z,99.43
2019-01-23T03:25:04.318Z,97.53
2019-01-23T03:27:34.594Z,95.33
2019-01-23T03:33:07.423Z,105.57
2019-01-23T03:35:37.856Z,93.20
2019-01-23T03:38:08.103Z,87.60
2019-01-23T03:43:34.700Z,79.03
2019-01-23T03:46:05.115Z,80.40
2019-01-23T03:48:35.456Z,78.90
2019-01-23T03:51:24.924Z,82.10
2019-01-23T03:53:55.202Z,97.50
2019-01-23T03:56:25.480Z,84.97
2019-01-23T03:58:55.867Z,76.33
2019-01-23T04:01:26.144Z,100.77
2019-01-23T04:03:56.477Z,88.37
2019-01-23T04:06:38.663Z,113.83
2019-01-23T04:09:09.594Z,101.77
2019-01-23T04:11:39.928Z,99.83
2019-01-23T04:14:10.203Z,104.20
2019-01-23T04:16:40.489Z,85.77
2019-01-23T04:19:10.743Z,107.60
2019-01-23T04:21:41.046Z,95.93
2019-01-23T04:24:11.344Z,90.00
2019-01-23T04:26:41.612Z,83.57
2019-01-23T04:29:13.749Z,88.30
2019-01-23T04:31:44.131Z,99.03
2019-01-23T04:34:14.371Z,78.07
2019-01-23T04:36:44.610Z,83.37
2019-01-23T04:39:39.698Z,110.50
2019-01-23T04:42:10.046Z,96.87
2019-01-23T04:44:40.353Z,90.37
2019-01-23T04:49:52.689Z,97.53
2019-01-23T04:52:42.189Z,110.90
2019-01-23T05:04:12.330Z,64.03
2019-01-23T05:06:42.773Z,86.03
2019-01-23T05:09:13.065Z,91.00
2019-01-23T05:11:44.403Z,88.17
2019-01-23T05:14:14.760Z,82.30
2019-01-23T05:16:45.044Z,86.00
2019-01-23T05:19:15.417Z,103.63
2019-01-23T05:24:51.922Z,91.17
2019-01-23T05:27:22.244Z,73.37
2019-01-23T05:29:54.949Z,87.83
2019-01-23T05:35:09.471Z,79.23
2019-01-23T05:37:39.798Z,88.10
2019-01-23T05:42:57.495Z,86.90
2019-01-23T05:45:27.777Z,79.50
2019-01-23T05:47:58.192Z,90.10
2019-01-23T05:50:28.601Z,81.73
2019-01-23T05:56:25.235Z,105.13
2019-01-23T05:58:56.059Z,84.80
2019-01-23T06:01:26.525Z,90.67
2019-01-23T06:12:56.330Z,72.03
2019-01-23T06:15:28.719Z,78.67
2019-01-23T06:17:58.990Z,76.67
2019-01-23T06:20:29.535Z,81.53
2019-01-23T06:23:13.709Z,100.33
2019-01-23T06:25:44.109Z,94.13
2019-01-23T06:28:15.189Z,81.20
2019-01-23T06:30:53.164Z,78.00
2019-01-23T06:33:25.476Z,85.80
2019-01-23T06:35:55.839Z,79.87
2019-01-23T06:38:26.126Z,77.87
2019-01-23T06:40:56.382Z,85.07
2019-01-23T06:43:26.698Z,85.03
2019-01-23T06:45:56.903Z,91.67
2019-01-23T06:48:27.256Z,86.70
2019-01-23T06:50:57.527Z,92.00
2019-01-23T06:53:27.880Z,96.07
2019-01-23T06:55:58.111Z,84.20
2019-01-23T06:58:28.356Z,91.43
2019-01-23T07:01:00.005Z,97.20
2019-01-23T07:06:15.244Z,81.03
2019-01-23T07:11:38.431Z,80.03
2019-01-23T07:14:08.689Z,77.93
2019-01-23T07:16:38.979Z,73.97
2019-01-23T07:19:28.594Z,95.33
2019-01-23T07:22:05.188Z,76.07
2019-01-23T07:24:35.435Z,70.90
2019-01-23T07:27:05.791Z,87.43
2019-01-23T07:29:38.851Z,76.80
2019-01-23T07:32:09.128Z,71.93
2019-01-23T07:34:39.339Z,80.80
2019-01-23T07:42:35.666Z,74.47
2019-01-23T07:45:07.656Z,98.90
2019-01-23T07:47:38.418Z,66.30
2019-01-23T07:50:09.838Z,82.73
2019-01-23T07:52:59.524Z,81.97
2019-01-23T07:55:29.738Z,78.03
2019-01-23T08:00:49.158Z,90.87
2019-01-23T08:03:19.493Z,85.23
2019-01-23T08:06:10.735Z,80.33
2019-01-23T08:08:41.012Z,71.27
2019-01-23T08:11:11.590Z,66.70
2019-01-23T08:16:46.039Z,64.47
2019-01-23T08:19:16.277Z,70.87
2019-01-23T08:21:46.619Z,64.87
2019-01-23T08:24:17.053Z,76.63
2019-01-23T08:26:47.390Z,70.30
2019-01-23T08:29:36.987Z,73.50
2019-01-23T08:32:08.502Z,78.03
2019-01-23T08:34:39.381Z,68.20
2019-01-23T08:39:48.393Z,71.70
2019-01-23T08:42:18.613Z,96.80
2019-01-23T08:44:48.928Z,79.03
2019-01-23T08:47:19.215Z,72.67
2019-01-23T08:49:50.422Z,66.97
2019-01-23T08:55:04.451Z,86.33
2019-01-23T08:57:47.855Z,60.13
2019-01-23T09:00:18.249Z,60.40
2019-01-23T09:02:48.725Z,65.60
2019-01-23T09:11:30.780Z,73.53
2019-01-23T09:14:01.104Z,83.50
2019-01-23T09:16:46.108Z,69.33
2019-01-23T09:19:16.573Z,73.47
2019-01-23T09:21:46.912Z,67.77
2019-01-23T09:24:17.911Z,55.50
2019-01-23T09:26:50.298Z,63.57
2019-01-23T09:29:20.724Z,71.80
2019-01-23T09:32:17.936Z,60.13
2019-01-23T09:35:27.220Z,67.70
2019-01-23T09:38:35.639Z,60.63
2019-01-23T09:41:15.236Z,66.37
2019-01-23T09:47:21.643Z,60.93
2019-01-23T09:53:34.422Z,64.23
2019-01-23T09:56:05.173Z,73.67
2019-01-23T09:58:35.463Z,62.87
2019-01-23T10:04:11.645Z,63.63
2019-01-23T10:06:41.997Z,55.20
2019-01-23T10:12:28.457Z,65.73
2019-01-23T10:15:03.176Z,62.10
2019-01-23T10:17:33.516Z,70.10
2019-01-23T10:20:04.312Z,47.73
2019-01-23T10:22:36.549Z,55.17
2019-01-23T10:25:07.094Z,62.60
2019-01-23T10:30:28.723Z,52.73
2019-01-23T10:35:41.406Z,74.77
2019-01-23T10:38:11.684Z,74.37
2019-01-23T10:40:42.042Z,81.50
2019-01-23T10:46:22.820Z,78.23
2019-01-23T10:48:54.779Z,78.37
2019-01-23T10:51:25.087Z,75.00
2019-01-23T10:54:14.956Z,78.63
2019-01-23T10:56:46.323Z,72.43
2019-01-23T11:02:19.772Z,76.33
2019-01-23T11:04:50.630Z,76.17
2019-01-23T11:07:21.113Z,88.07
2019-01-23T11:12:42.056Z,132.70
2019-01-23T11:15:31.651Z,129.13
2019-01-23T11:18:20.935Z,129.27
2019-01-23T11:20:51.175Z,138.03
2019-01-23T11:23:21.647Z,124.67
2019-01-23T11:25:51.947Z,140.97
2019-01-23T11:28:22.199Z,145.83
2019-01-23T11:33:36.941Z,142.87
2019-01-23T11:36:07.508Z,145.20
2019-01-23T11:38:40.414Z,159.70
2019-01-23T11:41:24.134Z,163.33
2019-01-23T11:43:55.107Z,153.60
2019-01-23T11:46:25.481Z,164.93
2019-01-23T11:48:58.421Z,134.93
2019-01-23T11:51:28.722Z,156.53
2019-01-23T11:56:41.281Z,177.20
2019-01-23T11:59:15.167Z,153.20
2019-01-23T12:01:47.441Z,148.47
2019-01-23T12:10:13.099Z,158.23
2019-01-23T12:12:59.852Z,164.37
2019-01-23T12:21:28.321Z,164.23
2019-01-23T12:27:03.327Z,166.73
2019-01-23T12:29:35.393Z,158.07
2019-01-23T12:32:17.898Z,154.23
2019-01-23T12:34:53.522Z,175.57
2019-01-23T12:40:31.392Z,159.63
2019-01-23T12:49:42.285Z,159.97
2019-01-23T12:52:14.220Z,162.93
2019-01-23T12:54:44.573Z,165.63
2019-01-23T12:57:15.440Z,171.23
2019-01-23T12:59:51.911Z,155.67
2019-01-23T13:02:22.261Z,170.47
2019-01-23T13:08:08.971Z,165.63
2019-01-23T13:14:09.072Z,181.07
2019-01-23T13:16:41.755Z,212.60
2019-01-23T13:19:12.133Z,212.23
2019-01-23T13:21:43.017Z,207.73
2019-01-23T13:27:16.652Z,191.57
2019-01-23T13:32:40.974Z,171.57
2019-01-23T13:35:13.432Z,171.57
2019-01-23T13:37:44.448Z,191.17
2019-01-23T13:43:23.776Z,199.93
2019-01-23T13:45:54.010Z,190.53
2019-01-23T13:51:27.244Z,217.60
2019-01-23T13:53:57.643Z,201.80
2019-01-23T13:56:27.952Z,203.93
2019-01-23T13:58:58.368Z,226.67
2019-01-23T14:01:28.715Z,205.53
2019-01-23T14:07:12.408Z,190.20
2019-01-23T14:12:11.640Z,197.30
2019-01-23T14:15:01.117Z,186.23
2019-01-23T14:17:31.824Z,210.00
2019-01-23T14:22:52.226Z,179.07
2019-01-23T14:25:22.424Z,199.43
2019-01-23T14:27:54.700Z,193.83
2019-01-23T14:30:28.325Z,197.60
2019-01-23T14:35:49.031Z,174.77
2019-01-23T14:38:19.433Z,164.47
2019-01-23T14:41:02.355Z,195.23
2019-01-23T14:43:32.679Z,206.30
2019-01-23T14:46:03.959Z,192.27
2019-01-23T14:48:34.238Z,188.93
2019-01-23T14:54:06.682Z,197.43
2019-01-23T14:56:37.038Z,192.83
2019-01-23T14:59:11.630Z,151.53
2019-01-23T15:01:41.878Z,176.57
2019-01-23T15:04:13.921Z,181.17
2019-01-23T15:06:44.253Z,152.27
2019-01-23T15:09:19.867Z,181.70
2019-01-23T15:11:50.090Z,174.60
2019-01-23T15:14:20.481Z,177.30
2019-01-23T15:16:53.656Z,178.47
2019-01-23T15:20:10.473Z,185.40
2019-01-23T15:22:40.719Z,210.87
2019-01-23T15:25:11.098Z,183.00
2019-01-23T15:27:41.363Z,187.60
2019-01-23T15:30:13.367Z,190.33
2019-01-23T15:35:26.176Z,176.20
2019-01-23T15:37:56.480Z,183.63
2019-01-23T15:40:29.098Z,200.33
2019-01-23T15:42:59.469Z,161.30
2019-01-23T15:45:29.763Z,168.23
2019-01-23T15:48:00.063Z,147.00
2019-01-23T15:56:17.358Z,162.17
2019-01-23T16:01:42.773Z,153.57
2019-01-23T16:04:13.983Z,176.87
2019-01-23T16:09:45.783Z,157.93
2019-01-23T16:12:16.050Z,157.60
2019-01-23T16:14:46.809Z,146.20
2019-01-23T16:17:17.296Z,139.63
2019-01-23T16:19:47.638Z,151.73
2019-01-23T16:22:37.053Z,158.67
2019-01-23T16:25:08.552Z,137.80
2019-01-23T16:27:38.842Z,129.30
2019-01-23T16:33:22.611Z,114.73
2019-01-23T16:35:52.853Z,134.53
2019-01-23T16:38:23.177Z,125.57
2019-01-23T16:40:53.421Z,123.07
2019-01-23T16:44:08.753Z,113.70
2019-01-23T16:46:39.123Z,91.27
2019-01-23T16:49:30.171Z,108.40
2019-01-23T16:52:01.822Z,114.07
2019-01-23T16:54:49.803Z,101.13
2019-01-23T16:57:22.483Z,102.73
2019-01-23T17:02:55.244Z,84.00
2019-01-23T17:05:28.130Z,91.83
2019-01-23T17:08:00.306Z,107.23
2019-01-23T17:10:31.806Z,94.40
2019-01-23T17:16:16.681Z,87.27
2019-01-23T17:18:49.542Z,79.80
2019-01-23T17:21:19.787Z,109.57
2019-01-23T17:23:50.039Z,95.50
2019-01-23T17:26:20.389Z,95.40
2019-01-23T17:29:06.830Z,95.10
2019-01-23T17:31:37.259Z,91.83
2019-01-23T17:34:07.875Z,91.40
2019-01-23T17:37:03.167Z,85.53
2019-01-23T17:39:33.433Z,85.40
2019-01-23T17:42:23.188Z,85.60
2019-01-23T17:44:53.434Z,86.03
2019-01-23T17:50:15.769Z,91.03
2019-01-23T17:52:46.052Z,86.97
2019-01-23T17:55:28.335Z,89.93
2019-01-23T17:57:59.104Z,74.93
2019-01-23T18:08:39.256Z,88.30
2019-01-23T18:11:09.483Z,83.73
2019-01-23T18:13:39.756Z,68.20
2019-01-23T18:16:11.832Z,79.20
2019-01-23T18:18:42.149Z,78.77
2019-01-23T18:21:12.747Z,77.50
2019-01-23T18:23:43.021Z,87.57
2019-01-23T18:26:13.299Z,75.87
2019-01-23T18:28:43.736Z,83.63
2019-01-23T18:31:44.853Z,85.83
2019-01-23T18:34:49.415Z,85.53
2019-01-23T18:37:42.736Z,86.10
2019-01-23T18:40:51.400Z,73.77
2019-01-23T18:44:00.074Z,74.20
2019-01-23T18:47:09.722Z,84.67
2019-01-23T18:50:18.026Z,63.67
2019-01-23T18:53:01.761Z,73.33
2019-01-23T18:55:32.721Z,64.07
2019-01-23T19:01:06.671Z,70.50
2019-01-23T19:03:37.372Z,77.97
2019-01-23T19:06:07.744Z,78.47
2019-01-23T19:08:38.047Z,80.03
2019-01-23T19:11:11.830Z,81.67
2019-01-23T19:13:43.131Z,74.23
2019-01-23T19:16:33.975Z,79.70
2019-01-23T19:19:05.026Z,70.40
2019-01-23T19:21:55.213Z,73.37
2019-01-23T19:24:25.672Z,78.40
2019-01-23T19:26:58.667Z,80.13
2019-01-23T19:29:53.707Z,68.87
2019-01-23T19:32:24.098Z,72.13
2019-01-23T19:34:54.574Z,74.63
2019-01-23T19:37:25.059Z,74.67
2019-01-23T19:39:55.349Z,68.70
2019-01-23T19:45:32.065Z,71.47
2019-01-23T19:50:57.821Z,71.33
2019-01-23T19:53:28.136Z,81.53
2019-01-23T19:56:00.813Z,79.63
2019-01-23T19:58:50.406Z,77.07
2019-01-23T20:01:20.915Z,73.90
2019-01-23T20:03:51.344Z,80.67
2019-01-23T20:06:21.640Z,79.83
2019-01-23T20:08:51.957Z,81.67
2019-01-23T20:11:22.653Z,75.33
2019-01-23T20:14:24.761Z,78.03
2019-01-23T20:16:57.081Z,75.60
2019-01-23T20:19:27.365Z,70.93
2019-01-23T20:27:32.072Z,80.10
2019-01-23T20:30:02.916Z,67.60
2019-01-23T20:32:33.334Z,73.57
2019-01-23T20:35:03.713Z,83.50
2019-01-23T20:37:34.148Z,80.83
2019-01-23T20:46:01.251Z,72.17
2019-01-23T20:48:31.731Z,66.57
2019-01-23T20:51:02.065Z,70.13
2019-01-23T20:53:32.385Z,71.50
2019-01-23T20:56:02.645Z,73.40
2019-01-23T20:58:32.959Z,72.80
2019-01-23T21:01:03.379Z,76.03
2019-01-23T21:03:35.159Z,66.40
2019-01-23T21:08:51.623Z,83.13
2019-01-23T21:11:21.851Z,70.13
2019-01-23T21:13:53.837Z,74.03
2019-01-23T21:16:42.306Z,69.23
2019-01-23T21:19:13.035Z,69.27
2019-01-23T21:24:44.731Z,70.87
2019-01-23T21:29:57.329Z,72.17
2019-01-23T21:32:27.594Z,70.27
2019-01-23T21:34:57.867Z,75.20
2019-01-23T21:37:28.205Z,77.83
2019-01-23T21:39:58.457Z,70.17
2019-01-23T21:42:28.767Z,77.60
2019-01-23T21:44:59.148Z,68.57
2019-01-23T21:47:31.080Z,72.97
2019-01-23T21:53:01.002Z,75.80
2019-01-23T21:55:31.318Z,71.67
2019-01-23T21:58:01.582Z,70.53
2019-01-23T22:03:19.576Z,80.27
2019-01-23T22:08:44.658Z,71.07
2019-01-23T22:11:14.974Z,72.20
2019-01-23T22:13:45.275Z,74.20
2019-01-23T22:16:16.265Z,71.33
2019-01-23T22:18:58.826Z,72.00
2019-01-23T22:21:29.270Z,78.73
2019-01-23T22:23:59.558Z,69.83
2019-01-23T22:26:43.970Z,74.27
2019-01-23T22:31:56.620Z,77.50
2019-01-23T22:34:27.377Z,71.10
2019-01-23T22:37:03.491Z,79.43
2019-01-23T22:39:33.822Z,82.17
2019-01-23T22:42:04.250Z,72.80
2019-01-23T22:44:34.491Z,72.40
2019-01-23T22:47:05.135Z,81.97
2019-01-23T22:49:35.407Z,75.00
2019-01-23T22:52:05.702Z,74.57
2019-01-23T22:54:35.930Z,82.77
2019-01-23T23:06:08.582Z,81.73
2019-01-23T23:08:38.837Z,86.57
2019-01-23T23:11:09.109Z,79.60
2019-01-23T23:13:39.484Z,84.37
2019-01-23T23:28:04.104Z,78.23
2019-01-23T23:30:35.476Z,78.33
2019-01-23T23:33:08.109Z,88.33
2019-01-23T23:35:38.562Z,89.53
2019-01-23T23:41:09.204Z,78.43
2019-01-23T23:47:03.239Z,89.70
2019-01-23T23:49:33.604Z,81.87
2019-01-23T23:52:04.297Z,75.93
2019-01-23T23:54:34.742Z,76.23
2019-01-23T23:57:05.144Z,80.77
2019-01-23T23:59:36.071Z,73.77
